2011-07-03から1日間の記事一覧

Aviation Digital Data Service (ADDS)

Aviation Digital Data Service (ADDS)Output produced by METARs form (0340 UTC 03 July 2011) found at http://aviationweather.gov/adds/metars/index.php RJFR 030300Z 20015KT 9999 FEW020 SCT040 BKN100 30/23 Q1003 RJFR 030200Z 15010KT 130V190 99…